Summit, Washington
Current Conditions -  °F | °C
As of 9:58 AM on Saturday 25 Oct 2014 (Local Time) from KTCM Reporting Station
Scattered Clouds Scattered Clouds  
Wind Chill: 52°   Ceiling: Unl
Heat Index: 52°   Visibility: 10mi
Dew Point: 52°   Wind: 6mph
Humidity: 100%   Direction: 20°NNE
Pressure: 29.49"   Gusts: NA
Location:  47.1905°N, 122.328°W
Report Text: KTCM 251658Z AUTO 02005KT 10SM FEW095 SCT140 11/11 A2949 RMK AO2 RAE1557 SLP990 P0000 T01100110 $
Loading
Personal Weather Stations






























Interactive Weather Map
Tropical Storm Tracking
New forecast layout! Learn more

10-Day Weather Forecast

Advertisements
Track Severe Weather on mobile